sensor_id;sensor_type;location;lat;lon;timestamp;P1;durP1;ratioP1;P2;durP2;ratioP2
12048;SDS011;6085;49.452;8.502;2023-04-03T00:03:51;2.33;;;1.98;;
12048;SDS011;6085;49.452;8.502;2023-04-03T00:07:53;3.00;;;1.95;;
12048;SDS011;6085;49.452;8.502;2023-04-03T00:11:55;2.55;;;2.20;;
12048;SDS011;6085;49.452;8.502;2023-04-03T00:15:57;2.40;;;2.00;;
12048;SDS011;6085;49.452;8.502;2023-04-03T00:20:00;2.00;;;1.80;;
12048;SDS011;6085;49.452;8.502;2023-04-03T00:24:02;2.30;;;2.10;;
12048;SDS011;6085;49.452;8.502;2023-04-03T00:28:04;3.47;;;2.20;;
12048;SDS011;6085;49.452;8.502;2023-04-03T00:32:06;2.30;;;2.10;;
12048;SDS011;6085;49.452;8.502;2023-04-03T00:36:10;2.88;;;1.90;;
12048;SDS011;6085;49.452;8.502;2023-04-03T00:40:14;2.00;;;1.90;;
12048;SDS011;6085;49.452;8.502;2023-04-03T00:44:20;2.05;;;1.85;;
12048;SDS011;6085;49.452;8.502;2023-04-03T00:48:24;3.53;;;2.00;;
12048;SDS011;6085;49.452;8.502;2023-04-03T00:52:30;1.98;;;1.85;;
12048;SDS011;6085;49.452;8.502;2023-04-03T00:56:32;2.25;;;2.03;;
12048;SDS011;6085;49.452;8.502;2023-04-03T01:00:37;2.92;;;1.80;;
12048;SDS011;6085;49.452;8.502;2023-04-03T01:04:42;1.95;;;1.73;;
12048;SDS011;6085;49.452;8.502;2023-04-03T01:08:47;2.38;;;1.80;;
12048;SDS011;6085;49.452;8.502;2023-04-03T01:12:50;2.05;;;1.80;;
12048;SDS011;6085;49.452;8.502;2023-04-03T01:16:53;2.70;;;2.00;;
12048;SDS011;6085;49.452;8.502;2023-04-03T01:25:28;2.97;;;1.92;;
12048;SDS011;6085;49.452;8.502;2023-04-03T01:29:30;2.15;;;1.95;;
12048;SDS011;6085;49.452;8.502;2023-04-03T01:33:34;4.18;;;2.13;;
12048;SDS011;6085;49.452;8.502;2023-04-03T01:37:36;2.08;;;1.75;;
12048;SDS011;6085;49.452;8.502;2023-04-03T01:41:38;1.92;;;1.83;;
12048;SDS011;6085;49.452;8.502;2023-04-03T01:45:40;2.40;;;1.98;;
12048;SDS011;6085;49.452;8.502;2023-04-03T01:49:43;2.15;;;1.95;;
12048;SDS011;6085;49.452;8.502;2023-04-03T01:53:45;2.67;;;2.20;;
12048;SDS011;6085;49.452;8.502;2023-04-03T01:57:47;2.53;;;2.10;;
12048;SDS011;6085;49.452;8.502;2023-04-03T02:01:49;2.63;;;2.05;;
12048;SDS011;6085;49.452;8.502;2023-04-03T02:05:52;2.97;;;2.40;;
12048;SDS011;6085;49.452;8.502;2023-04-03T02:09:54;2.65;;;2.45;;
12048;SDS011;6085;49.452;8.502;2023-04-03T02:13:56;3.35;;;2.70;;
12048;SDS011;6085;49.452;8.502;2023-04-03T02:17:58;5.53;;;2.38;;
12048;SDS011;6085;49.452;8.502;2023-04-03T02:22:02;2.70;;;2.50;;
12048;SDS011;6085;49.452;8.502;2023-04-03T02:26:05;2.65;;;2.40;;
12048;SDS011;6085;49.452;8.502;2023-04-03T02:30:08;3.30;;;2.42;;
12048;SDS011;6085;49.452;8.502;2023-04-03T02:34:10;2.75;;;2.50;;
12048;SDS011;6085;49.452;8.502;2023-04-03T02:38:14;4.72;;;2.92;;
12048;SDS011;6085;49.452;8.502;2023-04-03T02:42:16;2.83;;;2.60;;
12048;SDS011;6085;49.452;8.502;2023-04-03T02:46:18;4.82;;;2.90;;
12048;SDS011;6085;49.452;8.502;2023-04-03T02:50:20;3.20;;;2.50;;
12048;SDS011;6085;49.452;8.502;2023-04-03T02:54:23;4.70;;;3.90;;
12048;SDS011;6085;49.452;8.502;2023-04-03T02:58:28;3.30;;;3.00;;
12048;SDS011;6085;49.452;8.502;2023-04-03T03:02:30;3.15;;;2.92;;
12048;SDS011;6085;49.452;8.502;2023-04-03T03:06:32;3.47;;;3.05;;
12048;SDS011;6085;49.452;8.502;2023-04-03T03:10:35;3.08;;;2.88;;
12048;SDS011;6085;49.452;8.502;2023-04-03T03:14:37;3.60;;;3.15;;
12048;SDS011;6085;49.452;8.502;2023-04-03T03:18:39;3.30;;;3.00;;
12048;SDS011;6085;49.452;8.502;2023-04-03T03:22:41;3.00;;;2.80;;
12048;SDS011;6085;49.452;8.502;2023-04-03T03:26:44;4.38;;;2.88;;
12048;SDS011;6085;49.452;8.502;2023-04-03T03:30:46;3.30;;;3.00;;
12048;SDS011;6085;49.452;8.502;2023-04-03T03:34:48;3.88;;;3.15;;
12048;SDS011;6085;49.452;8.502;2023-04-03T03:38:50;3.72;;;3.08;;
12048;SDS011;6085;49.452;8.502;2023-04-03T03:42:53;3.38;;;3.08;;
12048;SDS011;6085;49.452;8.502;2023-04-03T03:46:55;3.95;;;3.35;;
12048;SDS011;6085;49.452;8.502;2023-04-03T03:50:57;3.80;;;3.50;;
12048;SDS011;6085;49.452;8.502;2023-04-03T03:55:00;3.42;;;3.10;;
12048;SDS011;6085;49.452;8.502;2023-04-03T03:59:03;3.72;;;3.42;;
12048;SDS011;6085;49.452;8.502;2023-04-03T04:03:05;3.80;;;3.50;;
12048;SDS011;6085;49.452;8.502;2023-04-03T04:07:07;3.80;;;3.40;;
12048;SDS011;6085;49.452;8.502;2023-04-03T04:11:09;3.58;;;3.28;;
12048;SDS011;6085;49.452;8.502;2023-04-03T04:15:13;4.30;;;3.90;;
12048;SDS011;6085;49.452;8.502;2023-04-03T04:19:15;4.10;;;3.50;;
12048;SDS011;6085;49.452;8.502;2023-04-03T04:23:17;5.45;;;3.67;;
12048;SDS011;6085;49.452;8.502;2023-04-03T04:27:19;5.15;;;3.83;;
12048;SDS011;6085;49.452;8.502;2023-04-03T04:31:23;4.10;;;3.70;;
12048;SDS011;6085;49.452;8.502;2023-04-03T04:35:25;3.90;;;3.55;;
12048;SDS011;6085;49.452;8.502;2023-04-03T04:39:26;4.25;;;3.83;;
12048;SDS011;6085;49.452;8.502;2023-04-03T04:43:28;5.03;;;3.90;;
12048;SDS011;6085;49.452;8.502;2023-04-03T04:47:32;3.85;;;3.50;;
12048;SDS011;6085;49.452;8.502;2023-04-03T04:51:33;4.53;;;4.13;;
12048;SDS011;6085;49.452;8.502;2023-04-03T04:55:35;4.20;;;3.78;;
12048;SDS011;6085;49.452;8.502;2023-04-03T04:59:37;4.80;;;4.22;;
12048;SDS011;6085;49.452;8.502;2023-04-03T05:03:40;4.82;;;4.20;;
12048;SDS011;6085;49.452;8.502;2023-04-03T05:07:43;6.60;;;4.65;;
12048;SDS011;6085;49.452;8.502;2023-04-03T05:11:45;4.90;;;4.43;;
12048;SDS011;6085;49.452;8.502;2023-04-03T05:15:47;4.53;;;4.10;;
12048;SDS011;6085;49.452;8.502;2023-04-03T05:19:50;7.30;;;4.78;;
12048;SDS011;6085;49.452;8.502;2023-04-03T05:23:52;4.80;;;4.30;;
12048;SDS011;6085;49.452;8.502;2023-04-03T05:27:54;6.65;;;4.90;;
12048;SDS011;6085;49.452;8.502;2023-04-03T05:31:56;7.10;;;5.30;;
12048;SDS011;6085;49.452;8.502;2023-04-03T05:36:03;7.57;;;5.22;;
12048;SDS011;6085;49.452;8.502;2023-04-03T05:40:06;6.63;;;5.95;;
12048;SDS011;6085;49.452;8.502;2023-04-03T05:44:08;9.43;;;6.35;;
12048;SDS011;6085;49.452;8.502;2023-04-03T05:48:10;6.28;;;5.57;;
12048;SDS011;6085;49.452;8.502;2023-04-03T05:52:16;4.82;;;4.40;;
12048;SDS011;6085;49.452;8.502;2023-04-03T05:56:21;5.68;;;3.70;;
12048;SDS011;6085;49.452;8.502;2023-04-03T06:00:23;3.67;;;3.35;;
12048;SDS011;6085;49.452;8.502;2023-04-03T06:04:25;3.85;;;3.30;;
12048;SDS011;6085;49.452;8.502;2023-04-03T06:08:29;3.72;;;3.05;;
12048;SDS011;6085;49.452;8.502;2023-04-03T06:12:31;4.57;;;3.00;;
12048;SDS011;6085;49.452;8.502;2023-04-03T06:16:33;3.60;;;3.30;;
12048;SDS011;6085;49.452;8.502;2023-04-03T06:20:35;3.38;;;3.08;;
12048;SDS011;6085;49.452;8.502;2023-04-03T06:24:38;5.00;;;3.00;;
12048;SDS011;6085;49.452;8.502;2023-04-03T06:28:40;2.97;;;2.78;;
12048;SDS011;6085;49.452;8.502;2023-04-03T06:32:42;4.65;;;3.20;;
12048;SDS011;6085;49.452;8.502;2023-04-03T06:36:44;3.35;;;3.05;;
12048;SDS011;6085;49.452;8.502;2023-04-03T06:40:48;5.40;;;2.80;;
12048;SDS011;6085;49.452;8.502;2023-04-03T06:44:51;3.47;;;2.92;;
12048;SDS011;6085;49.452;8.502;2023-04-03T06:48:53;3.35;;;3.05;;
12048;SDS011;6085;49.452;8.502;2023-04-03T06:52:55;3.00;;;2.67;;
12048;SDS011;6085;49.452;8.502;2023-04-03T06:56:59;2.63;;;2.42;;
12048;SDS011;6085;49.452;8.502;2023-04-03T07:01:01;4.30;;;2.78;;
12048;SDS011;6085;49.452;8.502;2023-04-03T07:05:03;3.63;;;2.60;;
12048;SDS011;6085;49.452;8.502;2023-04-03T07:09:06;3.20;;;2.70;;
12048;SDS011;6085;49.452;8.502;2023-04-03T07:13:10;4.85;;;2.97;;
12048;SDS011;6085;49.452;8.502;2023-04-03T07:17:12;3.53;;;2.95;;
12048;SDS011;6085;49.452;8.502;2023-04-03T07:21:17;3.22;;;2.50;;
12048;SDS011;6085;49.452;8.502;2023-04-03T07:25:20;2.67;;;2.35;;
12048;SDS011;6085;49.452;8.502;2023-04-03T07:29:23;3.85;;;2.30;;
12048;SDS011;6085;49.452;8.502;2023-04-03T07:33:25;2.70;;;1.90;;
12048;SDS011;6085;49.452;8.502;2023-04-03T07:37:27;2.25;;;1.90;;
12048;SDS011;6085;49.452;8.502;2023-04-03T07:41:29;2.63;;;1.85;;
12048;SDS011;6085;49.452;8.502;2023-04-03T07:45:33;1.90;;;1.80;;
12048;SDS011;6085;49.452;8.502;2023-04-03T07:49:36;1.83;;;1.65;;
12048;SDS011;6085;49.452;8.502;2023-04-03T07:53:40;2.38;;;1.63;;
12048;SDS011;6085;49.452;8.502;2023-04-03T07:57:42;1.58;;;1.48;;
12048;SDS011;6085;49.452;8.502;2023-04-03T08:01:45;1.80;;;1.70;;
12048;SDS011;6085;49.452;8.502;2023-04-03T08:05:47;2.15;;;1.60;;
12048;SDS011;6085;49.452;8.502;2023-04-03T08:09:50;1.85;;;1.70;;
12048;SDS011;6085;49.452;8.502;2023-04-03T08:13:52;1.90;;;1.27;;
12048;SDS011;6085;49.452;8.502;2023-04-03T08:17:56;3.50;;;1.73;;
12048;SDS011;6085;49.452;8.502;2023-04-03T08:21:59;1.45;;;1.20;;
12048;SDS011;6085;49.452;8.502;2023-04-03T08:26:06;1.48;;;1.33;;
12048;SDS011;6085;49.452;8.502;2023-04-03T08:30:09;1.42;;;1.33;;
12048;SDS011;6085;49.452;8.502;2023-04-03T08:34:14;4.00;;;1.80;;
12048;SDS011;6085;49.452;8.502;2023-04-03T08:38:16;2.15;;;1.30;;
12048;SDS011;6085;49.452;8.502;2023-04-03T08:42:19;1.70;;;1.33;;
12048;SDS011;6085;49.452;8.502;2023-04-03T08:46:38;3.35;;;1.48;;
12048;SDS011;6085;49.452;8.502;2023-04-03T08:50:57;1.50;;;1.20;;
12048;SDS011;6085;49.452;8.502;2023-04-03T08:55:02;2.42;;;1.10;;
12048;SDS011;6085;49.452;8.502;2023-04-03T08:59:10;2.50;;;1.10;;
12048;SDS011;6085;49.452;8.502;2023-04-03T09:03:16;1.60;;;1.10;;
12048;SDS011;6085;49.452;8.502;2023-04-03T09:07:22;1.50;;;1.23;;
12048;SDS011;6085;49.452;8.502;2023-04-03T09:11:35;1.10;;;0.98;;
12048;SDS011;6085;49.452;8.502;2023-04-03T09:15:45;2.33;;;1.10;;
12048;SDS011;6085;49.452;8.502;2023-04-03T09:19:49;1.70;;;1.00;;
12048;SDS011;6085;49.452;8.502;2023-04-03T09:23:59;1.90;;;1.00;;
12048;SDS011;6085;49.452;8.502;2023-04-03T09:28:04;2.45;;;1.20;;
12048;SDS011;6085;49.452;8.502;2023-04-03T09:32:17;1.67;;;0.90;;
12048;SDS011;6085;49.452;8.502;2023-04-03T09:36:38;2.78;;;1.30;;
12048;SDS011;6085;49.452;8.502;2023-04-03T09:40:43;1.80;;;1.02;;
12048;SDS011;6085;49.452;8.502;2023-04-03T09:44:53;1.42;;;0.93;;
12048;SDS011;6085;49.452;8.502;2023-04-03T09:48:58;1.40;;;1.10;;
12048;SDS011;6085;49.452;8.502;2023-04-03T09:53:04;1.40;;;0.90;;
12048;SDS011;6085;49.452;8.502;2023-04-03T09:57:10;1.88;;;1.00;;
12048;SDS011;6085;49.452;8.502;2023-04-03T10:01:20;1.40;;;1.02;;
12048;SDS011;6085;49.452;8.502;2023-04-03T10:05:30;1.92;;;1.10;;
12048;SDS011;6085;49.452;8.502;2023-04-03T10:09:33;1.27;;;1.10;;
12048;SDS011;6085;49.452;8.502;2023-04-03T10:13:37;1.23;;;1.10;;
12048;SDS011;6085;49.452;8.502;2023-04-03T10:17:53;1.13;;;0.88;;
12048;SDS011;6085;49.452;8.502;2023-04-03T10:22:00;1.23;;;0.90;;
12048;SDS011;6085;49.452;8.502;2023-04-03T10:26:10;1.50;;;0.90;;
12048;SDS011;6085;49.452;8.502;2023-04-03T10:30:20;1.63;;;1.13;;
12048;SDS011;6085;49.452;8.502;2023-04-03T10:34:32;1.20;;;0.90;;
12048;SDS011;6085;49.452;8.502;2023-04-03T10:38:40;1.33;;;0.88;;
12048;SDS011;6085;49.452;8.502;2023-04-03T10:42:50;1.90;;;1.20;;
12048;SDS011;6085;49.452;8.502;2023-04-03T10:47:02;1.45;;;1.10;;
12048;SDS011;6085;49.452;8.502;2023-04-03T10:51:13;1.10;;;1.00;;
12048;SDS011;6085;49.452;8.502;2023-04-03T10:55:24;1.00;;;0.90;;
12048;SDS011;6085;49.452;8.502;2023-04-03T10:59:35;1.13;;;1.00;;
12048;SDS011;6085;49.452;8.502;2023-04-03T11:03:42;1.10;;;1.02;;
12048;SDS011;6085;49.452;8.502;2023-04-03T11:07:47;2.80;;;1.20;;
12048;SDS011;6085;49.452;8.502;2023-04-03T11:11:51;0.90;;;0.90;;
12048;SDS011;6085;49.452;8.502;2023-04-03T11:15:58;1.33;;;1.23;;
12048;SDS011;6085;49.452;8.502;2023-04-03T11:20:06;1.80;;;1.30;;
12048;SDS011;6085;49.452;8.502;2023-04-03T11:24:15;2.15;;;1.05;;
12048;SDS011;6085;49.452;8.502;2023-04-03T11:28:23;1.50;;;1.40;;
12048;SDS011;6085;49.452;8.502;2023-04-03T11:32:39;1.67;;;1.13;;
12048;SDS011;6085;49.452;8.502;2023-04-03T11:37:03;1.08;;;1.00;;
12048;SDS011;6085;49.452;8.502;2023-04-03T11:41:12;1.95;;;1.25;;
12048;SDS011;6085;49.452;8.502;2023-04-03T11:45:16;1.48;;;1.13;;
12048;SDS011;6085;49.452;8.502;2023-04-03T11:54:05;1.00;;;1.00;;
12048;SDS011;6085;49.452;8.502;2023-04-03T12:08:15;1.27;;;1.17;;
12048;SDS011;6085;49.452;8.502;2023-04-03T12:12:30;2.55;;;1.50;;
12048;SDS011;6085;49.452;8.502;2023-04-03T12:16:41;1.33;;;1.00;;
12048;SDS011;6085;49.452;8.502;2023-04-03T12:20:51;2.13;;;1.35;;
12048;SDS011;6085;49.452;8.502;2023-04-03T12:24:54;2.50;;;1.30;;
12048;SDS011;6085;49.452;8.502;2023-04-03T12:28:57;3.72;;;1.35;;
12048;SDS011;6085;49.452;8.502;2023-04-03T12:33:20;2.15;;;1.10;;
12048;SDS011;6085;49.452;8.502;2023-04-03T12:37:48;2.20;;;1.23;;
12048;SDS011;6085;49.452;8.502;2023-04-03T12:42:04;1.85;;;1.20;;
12048;SDS011;6085;49.452;8.502;2023-04-03T12:46:20;2.47;;;1.40;;
12048;SDS011;6085;49.452;8.502;2023-04-03T12:50:24;3.17;;;1.23;;
12048;SDS011;6085;49.452;8.502;2023-04-03T12:54:30;1.33;;;1.23;;
12048;SDS011;6085;49.452;8.502;2023-04-03T12:58:36;2.72;;;1.50;;
12048;SDS011;6085;49.452;8.502;2023-04-03T13:02:39;1.75;;;1.10;;
12048;SDS011;6085;49.452;8.502;2023-04-03T13:06:46;2.75;;;1.75;;
12048;SDS011;6085;49.452;8.502;2023-04-03T13:10:51;1.50;;;1.10;;
12048;SDS011;6085;49.452;8.502;2023-04-03T13:14:57;1.45;;;1.27;;
12048;SDS011;6085;49.452;8.502;2023-04-03T13:19:02;1.23;;;1.13;;
12048;SDS011;6085;49.452;8.502;2023-04-03T13:23:05;1.40;;;1.30;;
12048;SDS011;6085;49.452;8.502;2023-04-03T13:27:10;1.40;;;1.10;;
12048;SDS011;6085;49.452;8.502;2023-04-03T13:31:17;1.25;;;1.15;;
12048;SDS011;6085;49.452;8.502;2023-04-03T13:35:35;1.42;;;1.20;;
12048;SDS011;6085;49.452;8.502;2023-04-03T13:39:39;6.15;;;1.38;;
12048;SDS011;6085;49.452;8.502;2023-04-03T13:43:41;2.25;;;1.45;;
12048;SDS011;6085;49.452;8.502;2023-04-03T13:47:44;1.40;;;1.30;;
12048;SDS011;6085;49.452;8.502;2023-04-03T13:51:48;1.52;;;1.10;;
12048;SDS011;6085;49.452;8.502;2023-04-03T13:55:53;1.50;;;1.20;;
12048;SDS011;6085;49.452;8.502;2023-04-03T14:00:18;1.40;;;1.30;;
12048;SDS011;6085;49.452;8.502;2023-04-03T14:04:21;1.98;;;1.52;;
12048;SDS011;6085;49.452;8.502;2023-04-03T14:08:27;1.50;;;1.40;;
12048;SDS011;6085;49.452;8.502;2023-04-03T14:12:31;1.52;;;1.30;;
12048;SDS011;6085;49.452;8.502;2023-04-03T14:16:37;3.45;;;1.50;;
12048;SDS011;6085;49.452;8.502;2023-04-03T14:20:42;1.95;;;1.23;;
12048;SDS011;6085;49.452;8.502;2023-04-03T14:24:46;2.15;;;1.50;;
12048;SDS011;6085;49.452;8.502;2023-04-03T14:28:48;2.08;;;1.30;;
12048;SDS011;6085;49.452;8.502;2023-04-03T14:32:52;1.30;;;1.20;;
12048;SDS011;6085;49.452;8.502;2023-04-03T14:36:54;1.60;;;1.40;;
12048;SDS011;6085;49.452;8.502;2023-04-03T14:40:57;1.35;;;1.25;;
12048;SDS011;6085;49.452;8.502;2023-04-03T14:45:00;2.05;;;1.20;;
12048;SDS011;6085;49.452;8.502;2023-04-03T14:49:03;1.33;;;1.23;;
12048;SDS011;6085;49.452;8.502;2023-04-03T14:53:13;2.40;;;1.35;;
12048;SDS011;6085;49.452;8.502;2023-04-03T14:57:17;1.65;;;1.50;;
12048;SDS011;6085;49.452;8.502;2023-04-03T15:01:20;1.77;;;1.23;;
12048;SDS011;6085;49.452;8.502;2023-04-03T15:05:22;2.40;;;1.10;;
12048;SDS011;6085;49.452;8.502;2023-04-03T15:09:26;1.70;;;1.33;;
12048;SDS011;6085;49.452;8.502;2023-04-03T15:13:30;1.30;;;1.20;;
12048;SDS011;6085;49.452;8.502;2023-04-03T15:17:32;1.48;;;1.38;;
12048;SDS011;6085;49.452;8.502;2023-04-03T15:21:36;1.90;;;1.10;;
12048;SDS011;6085;49.452;8.502;2023-04-03T15:25:38;1.10;;;1.10;;
12048;SDS011;6085;49.452;8.502;2023-04-03T15:29:42;1.85;;;1.30;;
12048;SDS011;6085;49.452;8.502;2023-04-03T15:33:44;1.05;;;1.05;;
12048;SDS011;6085;49.452;8.502;2023-04-03T15:37:46;1.35;;;1.25;;
12048;SDS011;6085;49.452;8.502;2023-04-03T15:41:49;1.65;;;1.30;;
12048;SDS011;6085;49.452;8.502;2023-04-03T15:45:53;1.42;;;1.27;;
12048;SDS011;6085;49.452;8.502;2023-04-03T15:49:59;1.98;;;1.58;;
12048;SDS011;6085;49.452;8.502;2023-04-03T15:54:01;1.50;;;1.20;;
12048;SDS011;6085;49.452;8.502;2023-04-03T15:58:04;1.58;;;1.40;;
12048;SDS011;6085;49.452;8.502;2023-04-03T16:02:07;2.15;;;1.30;;
12048;SDS011;6085;49.452;8.502;2023-04-03T16:06:12;1.23;;;1.05;;
12048;SDS011;6085;49.452;8.502;2023-04-03T16:10:16;1.55;;;1.15;;
12048;SDS011;6085;49.452;8.502;2023-04-03T16:14:19;1.40;;;1.10;;
12048;SDS011;6085;49.452;8.502;2023-04-03T16:18:22;1.42;;;1.17;;
12048;SDS011;6085;49.452;8.502;2023-04-03T16:22:24;1.52;;;1.25;;
12048;SDS011;6085;49.452;8.502;2023-04-03T16:26:28;1.23;;;1.10;;
12048;SDS011;6085;49.452;8.502;2023-04-03T16:30:30;1.85;;;1.27;;
12048;SDS011;6085;49.452;8.502;2023-04-03T16:34:33;1.90;;;1.40;;
12048;SDS011;6085;49.452;8.502;2023-04-03T16:38:35;1.17;;;1.00;;
12048;SDS011;6085;49.452;8.502;2023-04-03T16:42:37;1.52;;;1.10;;
12048;SDS011;6085;49.452;8.502;2023-04-03T16:46:39;1.17;;;1.13;;
12048;SDS011;6085;49.452;8.502;2023-04-03T16:50:47;2.05;;;1.02;;
12048;SDS011;6085;49.452;8.502;2023-04-03T16:54:50;1.00;;;1.00;;
12048;SDS011;6085;49.452;8.502;2023-04-03T16:58:55;1.40;;;1.30;;
12048;SDS011;6085;49.452;8.502;2023-04-03T17:02:57;1.35;;;1.13;;
12048;SDS011;6085;49.452;8.502;2023-04-03T17:07:00;1.52;;;1.42;;
12048;SDS011;6085;49.452;8.502;2023-04-03T17:11:06;1.15;;;1.05;;
12048;SDS011;6085;49.452;8.502;2023-04-03T17:15:08;1.40;;;1.00;;
12048;SDS011;6085;49.452;8.502;2023-04-03T17:19:10;1.48;;;1.20;;
12048;SDS011;6085;49.452;8.502;2023-04-03T17:23:14;1.27;;;1.05;;
12048;SDS011;6085;49.452;8.502;2023-04-03T17:27:16;1.50;;;1.30;;
12048;SDS011;6085;49.452;8.502;2023-04-03T17:31:18;2.28;;;1.50;;
12048;SDS011;6085;49.452;8.502;2023-04-03T17:35:20;1.40;;;1.30;;
12048;SDS011;6085;49.452;8.502;2023-04-03T17:39:24;1.20;;;1.10;;
12048;SDS011;6085;49.452;8.502;2023-04-03T17:43:26;1.63;;;1.17;;
12048;SDS011;6085;49.452;8.502;2023-04-03T17:47:28;2.00;;;1.25;;
12048;SDS011;6085;49.452;8.502;2023-04-03T17:51:30;2.30;;;1.40;;
12048;SDS011;6085;49.452;8.502;2023-04-03T17:55:35;1.40;;;1.30;;
12048;SDS011;6085;49.452;8.502;2023-04-03T17:59:38;1.80;;;1.30;;
12048;SDS011;6085;49.452;8.502;2023-04-03T18:03:40;1.52;;;1.30;;
12048;SDS011;6085;49.452;8.502;2023-04-03T18:07:42;1.95;;;1.60;;
12048;SDS011;6085;49.452;8.502;2023-04-03T18:11:46;1.10;;;1.02;;
12048;SDS011;6085;49.452;8.502;2023-04-03T18:15:49;1.75;;;1.33;;
12048;SDS011;6085;49.452;8.502;2023-04-03T18:19:51;2.80;;;1.80;;
12048;SDS011;6085;49.452;8.502;2023-04-03T18:23:53;1.60;;;1.50;;
12048;SDS011;6085;49.452;8.502;2023-04-03T18:27:57;1.38;;;1.27;;
12048;SDS011;6085;49.452;8.502;2023-04-03T18:32:05;2.17;;;1.80;;
12048;SDS011;6085;49.452;8.502;2023-04-03T18:36:10;1.30;;;1.20;;
12048;SDS011;6085;49.452;8.502;2023-04-03T18:40:12;1.67;;;1.55;;
12048;SDS011;6085;49.452;8.502;2023-04-03T18:44:16;1.50;;;1.33;;
12048;SDS011;6085;49.452;8.502;2023-04-03T18:48:20;2.22;;;1.77;;
12048;SDS011;6085;49.452;8.502;2023-04-03T18:52:23;2.20;;;1.45;;
12048;SDS011;6085;49.452;8.502;2023-04-03T18:56:25;2.10;;;1.30;;
12048;SDS011;6085;49.452;8.502;2023-04-03T19:00:29;3.25;;;1.48;;
12048;SDS011;6085;49.452;8.502;2023-04-03T19:04:32;1.60;;;1.45;;
12048;SDS011;6085;49.452;8.502;2023-04-03T19:08:35;1.67;;;1.42;;
12048;SDS011;6085;49.452;8.502;2023-04-03T19:12:37;1.90;;;1.48;;
12048;SDS011;6085;49.452;8.502;2023-04-03T19:16:40;1.80;;;1.63;;
12048;SDS011;6085;49.452;8.502;2023-04-03T19:20:42;2.53;;;1.80;;
12048;SDS011;6085;49.452;8.502;2023-04-03T19:24:44;6.13;;;3.15;;
12048;SDS011;6085;49.452;8.502;2023-04-03T19:28:46;1.75;;;1.65;;
12048;SDS011;6085;49.452;8.502;2023-04-03T19:32:51;1.83;;;1.60;;
12048;SDS011;6085;49.452;8.502;2023-04-03T19:36:53;4.07;;;1.85;;
12048;SDS011;6085;49.452;8.502;2023-04-03T19:40:55;7.53;;;2.08;;
12048;SDS011;6085;49.452;8.502;2023-04-03T19:44:56;3.60;;;1.77;;
12048;SDS011;6085;49.452;8.502;2023-04-03T19:49:00;3.28;;;1.80;;
12048;SDS011;6085;49.452;8.502;2023-04-03T19:53:02;1.60;;;1.45;;
12048;SDS011;6085;49.452;8.502;2023-04-03T19:57:04;1.58;;;1.48;;
12048;SDS011;6085;49.452;8.502;2023-04-03T20:01:07;3.15;;;1.70;;
12048;SDS011;6085;49.452;8.502;2023-04-03T20:05:10;2.03;;;1.75;;
12048;SDS011;6085;49.452;8.502;2023-04-03T20:09:12;2.08;;;1.80;;
12048;SDS011;6085;49.452;8.502;2023-04-03T20:13:15;2.58;;;1.42;;
12048;SDS011;6085;49.452;8.502;2023-04-03T20:17:17;1.80;;;1.30;;
12048;SDS011;6085;49.452;8.502;2023-04-03T20:21:20;1.75;;;1.42;;
12048;SDS011;6085;49.452;8.502;2023-04-03T20:25:27;1.55;;;1.38;;
12048;SDS011;6085;49.452;8.502;2023-04-03T20:29:28;4.40;;;2.70;;
12048;SDS011;6085;49.452;8.502;2023-04-03T20:33:31;2.13;;;1.88;;
12048;SDS011;6085;49.452;8.502;2023-04-03T20:37:35;4.90;;;1.80;;
12048;SDS011;6085;49.452;8.502;2023-04-03T20:41:41;1.58;;;1.33;;
12048;SDS011;6085;49.452;8.502;2023-04-03T20:45:43;1.73;;;1.35;;
12048;SDS011;6085;49.452;8.502;2023-04-03T20:49:45;1.20;;;1.20;;
12048;SDS011;6085;49.452;8.502;2023-04-03T20:53:48;2.03;;;1.40;;
12048;SDS011;6085;49.452;8.502;2023-04-03T20:57:51;1.30;;;1.20;;
12048;SDS011;6085;49.452;8.502;2023-04-03T21:01:53;1.80;;;1.50;;
12048;SDS011;6085;49.452;8.502;2023-04-03T21:19:22;1.80;;;1.23;;
12048;SDS011;6085;49.452;8.502;2023-04-03T21:23:24;2.70;;;1.40;;
12048;SDS011;6085;49.452;8.502;2023-04-03T21:27:27;1.45;;;1.35;;
12048;SDS011;6085;49.452;8.502;2023-04-03T21:31:50;2.03;;;1.80;;
12048;SDS011;6085;49.452;8.502;2023-04-03T21:35:54;2.08;;;1.50;;
12048;SDS011;6085;49.452;8.502;2023-04-03T21:39:58;5.43;;;1.63;;
12048;SDS011;6085;49.452;8.502;2023-04-03T21:44:00;1.50;;;1.40;;
12048;SDS011;6085;49.452;8.502;2023-04-03T21:48:02;1.92;;;1.50;;
12048;SDS011;6085;49.452;8.502;2023-04-03T21:52:06;1.48;;;1.35;;
12048;SDS011;6085;49.452;8.502;2023-04-03T21:56:08;2.40;;;1.60;;
12048;SDS011;6085;49.452;8.502;2023-04-03T22:00:10;3.05;;;2.05;;
12048;SDS011;6085;49.452;8.502;2023-04-03T22:04:13;2.15;;;1.30;;
12048;SDS011;6085;49.452;8.502;2023-04-03T22:08:17;3.47;;;1.50;;
12048;SDS011;6085;49.452;8.502;2023-04-03T22:12:20;2.15;;;1.55;;
12048;SDS011;6085;49.452;8.502;2023-04-03T22:16:22;1.50;;;1.40;;
12048;SDS011;6085;49.452;8.502;2023-04-03T22:20:24;3.45;;;1.83;;
12048;SDS011;6085;49.452;8.502;2023-04-03T22:24:27;3.22;;;1.67;;
12048;SDS011;6085;49.452;8.502;2023-04-03T22:28:31;1.38;;;1.27;;
12048;SDS011;6085;49.452;8.502;2023-04-03T22:32:34;2.17;;;1.48;;
12048;SDS011;6085;49.452;8.502;2023-04-03T22:36:36;3.50;;;1.80;;
12048;SDS011;6085;49.452;8.502;2023-04-03T22:40:39;1.58;;;1.40;;
12048;SDS011;6085;49.452;8.502;2023-04-03T22:44:42;1.50;;;1.25;;
12048;SDS011;6085;49.452;8.502;2023-04-03T22:48:43;1.80;;;1.38;;
12048;SDS011;6085;49.452;8.502;2023-04-03T22:52:45;1.58;;;1.48;;
12048;SDS011;6085;49.452;8.502;2023-04-03T22:56:49;1.40;;;1.30;;
12048;SDS011;6085;49.452;8.502;2023-04-03T23:00:51;2.38;;;1.40;;
12048;SDS011;6085;49.452;8.502;2023-04-03T23:04:54;2.13;;;1.48;;
12048;SDS011;6085;49.452;8.502;2023-04-03T23:08:55;2.30;;;1.50;;
12048;SDS011;6085;49.452;8.502;2023-04-03T23:12:59;1.63;;;1.48;;
12048;SDS011;6085;49.452;8.502;2023-04-03T23:17:01;1.42;;;1.33;;
12048;SDS011;6085;49.452;8.502;2023-04-03T23:21:04;1.40;;;1.30;;
12048;SDS011;6085;49.452;8.502;2023-04-03T23:25:07;1.85;;;1.35;;
12048;SDS011;6085;49.452;8.502;2023-04-03T23:29:11;2.25;;;1.40;;
12048;SDS011;6085;49.452;8.502;2023-04-03T23:33:13;2.78;;;1.52;;
12048;SDS011;6085;49.452;8.502;2023-04-03T23:37:15;2.20;;;1.30;;
12048;SDS011;6085;49.452;8.502;2023-04-03T23:41:16;2.00;;;1.50;;
12048;SDS011;6085;49.452;8.502;2023-04-03T23:45:20;2.10;;;1.55;;
12048;SDS011;6085;49.452;8.502;2023-04-03T23:49:22;2.40;;;1.70;;
12048;SDS011;6085;49.452;8.502;2023-04-03T23:53:24;2.33;;;1.60;;
12048;SDS011;6085;49.452;8.502;2023-04-03T23:57:26;1.95;;;1.30;;
